createdAt,value
2016-07-10T00:00:24.662Z,19.62
2016-07-10T00:00:54.675Z,19.64
2016-07-10T00:01:24.698Z,19.62
2016-07-10T00:01:54.714Z,19.64
2016-07-10T00:02:24.721Z,19.71
2016-07-10T00:02:54.737Z,19.62
2016-07-10T00:03:24.756Z,19.59
2016-07-10T00:03:54.772Z,19.71
2016-07-10T00:04:24.787Z,19.59
2016-07-10T00:04:54.811Z,19.58
2016-07-10T00:05:24.824Z,19.66
2016-07-10T00:05:54.832Z,19.74
2016-07-10T00:06:24.848Z,19.69
2016-07-10T00:06:54.872Z,19.59
2016-07-10T00:07:24.876Z,19.64
2016-07-10T00:07:54.893Z,19.66
2016-07-10T00:08:24.907Z,19.55
2016-07-10T00:08:54.927Z,19.59
2016-07-10T00:09:24.942Z,19.59
2016-07-10T00:09:54.955Z,19.63
2016-07-10T00:10:24.970Z,19.71
2016-07-10T00:10:54.992Z,19.62
2016-07-10T00:11:25.005Z,19.62
2016-07-10T00:11:55.023Z,19.56
2016-07-10T00:12:25.033Z,19.58
2016-07-10T00:12:54.435Z,19.55
2016-07-10T00:13:24.452Z,19.58
2016-07-10T00:13:55.078Z,19.62
2016-07-10T00:14:25.093Z,19.63
2016-07-10T00:14:54.492Z,19.63
2016-07-10T00:15:25.127Z,19.69
2016-07-10T00:15:55.142Z,19.56
2016-07-10T00:16:25.158Z,19.59
2016-07-10T00:16:55.179Z,19.66
2016-07-10T00:17:25.189Z,19.69
2016-07-10T00:17:55.202Z,19.63
2016-07-10T00:18:25.222Z,19.74
2016-07-10T00:18:55.232Z,19.7
2016-07-10T00:19:25.258Z,19.69
2016-07-10T00:19:55.263Z,19.63
2016-07-10T00:20:25.282Z,19.59
2016-07-10T00:20:55.292Z,19.59
2016-07-10T00:21:25.309Z,19.67
2016-07-10T00:21:55.323Z,19.64
2016-07-10T00:22:24.725Z,19.63
2016-07-10T00:22:55.354Z,19.59
2016-07-10T00:23:24.759Z,19.69
2016-07-10T00:23:55.382Z,19.63
2016-07-10T00:24:25.399Z,19.55
2016-07-10T00:24:55.427Z,19.63
2016-07-10T00:25:25.429Z,19.59
2016-07-10T00:25:55.454Z,19.62
2016-07-10T00:26:25.464Z,19.59
2016-07-10T00:26:55.481Z,19.56
2016-07-10T00:27:25.504Z,19.62
2016-07-10T00:27:55.513Z,19.63
2016-07-10T00:28:25.523Z,19.56
2016-07-10T00:28:55.540Z,19.67
2016-07-10T00:29:25.563Z,19.58
2016-07-10T00:29:55.568Z,19.74
2016-07-10T00:30:25.588Z,19.62
2016-07-10T00:30:55.603Z,19.71
2016-07-10T00:31:25.622Z,19.56
2016-07-10T00:31:55.632Z,19.59
2016-07-10T00:32:25.652Z,19.62
2016-07-10T00:32:55.670Z,19.55
2016-07-10T00:33:25.685Z,19.58
2016-07-10T00:33:55.690Z,19.67
2016-07-10T00:34:25.711Z,19.66
2016-07-10T00:34:55.725Z,19.7
2016-07-10T00:35:25.743Z,19.69
2016-07-10T00:35:55.749Z,19.74
2016-07-10T00:36:25.767Z,19.71
2016-07-10T00:36:55.781Z,19.59
2016-07-10T00:37:25.180Z,19.59
2016-07-10T00:37:55.814Z,19.63
2016-07-10T00:38:25.832Z,19.62
2016-07-10T00:38:55.844Z,19.59
2016-07-10T00:39:25.878Z,19.58
2016-07-10T00:39:55.876Z,19.55
2016-07-10T00:40:25.892Z,19.55
2016-07-10T00:40:55.904Z,19.58
2016-07-10T00:41:25.920Z,19.66
2016-07-10T00:41:55.936Z,19.63
2016-07-10T00:42:25.960Z,19.58
2016-07-10T00:42:55.983Z,19.62
2016-07-10T00:43:25.983Z,19.63
2016-07-10T00:43:55.998Z,19.62
2016-07-10T00:44:26.010Z,19.63
2016-07-10T00:44:56.044Z,19.56
2016-07-10T00:45:26.044Z,19.59
2016-07-10T00:45:56.063Z,19.49
2016-07-10T00:46:26.070Z,19.56
2016-07-10T00:46:56.095Z,19.52
2016-07-10T00:47:26.100Z,19.58
2016-07-10T00:47:56.122Z,19.51
2016-07-10T00:48:26.136Z,19.54
2016-07-10T00:48:56.156Z,19.55
2016-07-10T00:49:26.166Z,19.56
2016-07-10T00:49:56.180Z,19.66
2016-07-10T00:50:26.195Z,19.52
2016-07-10T00:50:56.209Z,19.52
2016-07-10T00:51:25.609Z,19.49
2016-07-10T00:51:56.239Z,19.54
2016-07-10T00:52:26.258Z,19.55
2016-07-10T00:52:56.274Z,19.58
2016-07-10T00:53:26.306Z,19.49
2016-07-10T00:53:56.308Z,19.48
2016-07-10T00:54:26.319Z,19.48
2016-07-10T00:54:56.335Z,19.47
2016-07-10T00:55:26.345Z,19.41
2016-07-10T00:55:56.363Z,19.45
2016-07-10T00:56:26.385Z,19.4
2016-07-10T00:56:56.398Z,19.44
2016-07-10T00:57:26.413Z,19.45
2016-07-10T00:57:56.430Z,19.47
2016-07-10T00:58:26.445Z,19.4
2016-07-10T00:58:56.461Z,19.4
2016-07-10T00:59:26.474Z,19.51
2016-07-10T00:59:56.486Z,19.44
2016-07-10T01:00:26.507Z,19.36
2016-07-10T01:00:56.517Z,19.36
2016-07-10T01:01:26.534Z,19.36
2016-07-10T01:01:55.936Z,19.26
2016-07-10T01:02:26.569Z,19.34
2016-07-10T01:02:56.575Z,19.3
2016-07-10T01:03:25.993Z,19.22
2016-07-10T01:03:55.998Z,19.34
2016-07-10T01:04:26.624Z,19.26
2016-07-10T01:04:56.027Z,19.19
2016-07-10T01:05:26.655Z,19.27
2016-07-10T01:05:56.671Z,19.24
2016-07-10T01:06:26.690Z,19.24
2016-07-10T01:06:56.705Z,19.19
2016-07-10T01:07:26.717Z,19.21
2016-07-10T01:07:56.116Z,19.22
2016-07-10T01:08:26.748Z,19.21
2016-07-10T01:08:56.766Z,19.34
2016-07-10T01:09:26.778Z,19.29
2016-07-10T01:09:56.789Z,19.31
2016-07-10T01:10:26.816Z,19.3
2016-07-10T01:10:56.822Z,19.37
2016-07-10T01:11:26.837Z,19.29
2016-07-10T01:11:56.852Z,19.34
2016-07-10T01:12:26.867Z,19.27
2016-07-10T01:12:56.270Z,19.29
2016-07-10T01:13:26.902Z,19.24
2016-07-10T01:13:56.301Z,19.3
2016-07-10T01:14:26.325Z,19.21
2016-07-10T01:14:56.954Z,19.26
2016-07-10T01:15:26.347Z,19.31
2016-07-10T01:15:56.981Z,19.24
2016-07-10T01:16:26.992Z,19.24
2016-07-10T01:16:57.007Z,19.27
2016-07-10T01:17:26.411Z,19.19
2016-07-10T01:17:57.040Z,19.29
2016-07-10T01:18:26.439Z,19.19
2016-07-10T01:18:57.067Z,19.22
2016-07-10T01:19:27.085Z,19.24
2016-07-10T01:19:57.098Z,19.22
2016-07-10T01:20:27.113Z,19.22
2016-07-10T01:20:57.124Z,19.21
2016-07-10T01:21:26.531Z,19.3
2016-07-10T01:21:57.158Z,19.29
2016-07-10T01:22:27.178Z,19.31
2016-07-10T01:22:57.190Z,19.29
2016-07-10T01:23:27.207Z,19.34
2016-07-10T01:23:57.219Z,19.31
2016-07-10T01:24:27.238Z,19.33
2016-07-10T01:24:56.642Z,19.3
2016-07-10T01:25:27.269Z,19.33
2016-07-10T01:25:56.670Z,19.27
2016-07-10T01:26:27.303Z,19.27
2016-07-10T01:26:57.309Z,19.24
2016-07-10T01:27:27.329Z,19.24
2016-07-10T01:27:57.346Z,19.29
2016-07-10T01:28:27.354Z,19.27
2016-07-10T01:28:57.373Z,19.24
2016-07-10T01:29:26.779Z,19.18
2016-07-10T01:29:57.404Z,19.19
2016-07-10T01:30:27.427Z,19.16
2016-07-10T01:30:57.438Z,19.12
2016-07-10T01:31:27.452Z,19.19
2016-07-10T01:31:57.469Z,19.12
2016-07-10T01:32:27.478Z,19.15
2016-07-10T01:32:57.493Z,19.11
2016-07-10T01:33:27.508Z,19.07
2016-07-10T01:33:57.536Z,19.11
2016-07-10T01:34:27.539Z,19.09
2016-07-10T01:34:57.553Z,19.04
2016-07-10T01:35:27.569Z,19.15
2016-07-10T01:35:57.585Z,19.11
2016-07-10T01:36:27.604Z,19.08
2016-07-10T01:36:57.614Z,19.08
2016-07-10T01:37:27.629Z,18.99
2016-07-10T01:37:57.039Z,19.09
2016-07-10T01:38:27.668Z,19.02
2016-07-10T01:38:57.678Z,18.89
2016-07-10T01:39:27.690Z,18.93
2016-07-10T01:39:57.707Z,18.92
2016-07-10T01:40:27.723Z,18.9
2016-07-10T01:40:57.735Z,18.99
2016-07-10T01:41:27.752Z,18.89
2016-07-10T01:41:57.768Z,18.93
2016-07-10T01:42:27.787Z,18.95
2016-07-10T01:42:57.180Z,18.95
2016-07-10T01:43:27.817Z,18.89
2016-07-10T01:43:57.827Z,18.88
2016-07-10T01:44:27.233Z,18.93
2016-07-10T01:44:57.881Z,18.9
2016-07-10T01:45:27.877Z,18.99
2016-07-10T01:45:57.889Z,18.98
2016-07-10T01:46:27.290Z,18.9
2016-07-10T01:46:57.923Z,18.98
2016-07-10T01:47:27.939Z,18.98
2016-07-10T01:47:57.949Z,18.89
2016-07-10T01:48:27.967Z,18.9
2016-07-10T01:48:57.979Z,18.89
2016-07-10T01:49:27.378Z,18.9
2016-07-10T01:49:58.019Z,18.92
2016-07-10T01:50:28.028Z,18.92
2016-07-10T01:50:58.043Z,18.9
2016-07-10T01:51:28.062Z,18.88
2016-07-10T01:51:58.074Z,18.84
2016-07-10T01:52:28.088Z,18.84
2016-07-10T01:52:58.099Z,18.83
2016-07-10T01:53:28.122Z,18.88
2016-07-10T01:53:58.136Z,18.84
2016-07-10T01:54:28.149Z,18.88
2016-07-10T01:54:58.167Z,18.84
2016-07-10T01:55:28.176Z,18.96
2016-07-10T01:55:58.194Z,18.98
2016-07-10T01:56:28.210Z,18.89
2016-07-10T01:56:58.226Z,18.93
2016-07-10T01:57:28.247Z,18.9
2016-07-10T01:57:57.640Z,18.95
2016-07-10T01:58:28.269Z,18.93
2016-07-10T01:58:58.284Z,18.92
2016-07-10T01:59:28.308Z,18.95
2016-07-10T01:59:58.314Z,18.92
2016-07-10T02:00:28.327Z,18.9
2016-07-10T02:00:57.734Z,18.95
2016-07-10T02:01:28.370Z,18.9
2016-07-10T02:01:58.374Z,18.96
2016-07-10T02:02:28.398Z,18.88
2016-07-10T02:02:58.413Z,18.95
2016-07-10T02:03:27.806Z,18.84
2016-07-10T02:03:58.444Z,18.95
2016-07-10T02:04:28.458Z,18.9
2016-07-10T02:04:58.470Z,18.81
2016-07-10T02:05:28.485Z,18.86
2016-07-10T02:05:58.505Z,18.78
2016-07-10T02:06:28.514Z,18.77
2016-07-10T02:06:58.527Z,18.74
2016-07-10T02:07:28.545Z,18.77
2016-07-10T02:07:58.564Z,18.75
2016-07-10T02:08:28.579Z,18.71
2016-07-10T02:08:58.587Z,18.75
2016-07-10T02:09:28.606Z,18.74
2016-07-10T02:09:58.623Z,18.74
2016-07-10T02:10:28.634Z,18.73
2016-07-10T02:10:58.037Z,18.66
2016-07-10T02:11:27.430Z,18.77
2016-07-10T02:11:58.686Z,18.66
2016-07-10T02:12:28.696Z,18.65
2016-07-10T02:12:58.715Z,18.71
2016-07-10T02:13:28.723Z,18.66
2016-07-10T02:13:58.744Z,18.62
2016-07-10T02:14:28.768Z,18.63
2016-07-10T02:14:58.768Z,18.62
2016-07-10T02:15:28.790Z,18.59
2016-07-10T02:15:58.803Z,18.6
2016-07-10T02:16:28.815Z,18.55
2016-07-10T02:16:58.840Z,18.62
2016-07-10T02:17:28.848Z,18.58
2016-07-10T02:17:58.867Z,18.58
2016-07-10T02:18:28.882Z,18.56
2016-07-10T02:18:58.891Z,18.59
2016-07-10T02:19:28.905Z,18.53
2016-07-10T02:19:58.924Z,18.52
2016-07-10T02:20:28.324Z,18.43
2016-07-10T02:20:58.950Z,18.55
2016-07-10T02:21:28.964Z,18.41
2016-07-10T02:21:58.985Z,18.47
2016-07-10T02:22:29.000Z,18.41
2016-07-10T02:22:58.401Z,18.38
2016-07-10T02:23:29.027Z,18.43
2016-07-10T02:23:59.049Z,18.4
2016-07-10T02:24:29.065Z,18.44
2016-07-10T02:24:59.074Z,18.38
2016-07-10T02:25:29.090Z,18.4
2016-07-10T02:25:59.098Z,18.45
2016-07-10T02:26:29.129Z,18.45
2016-07-10T02:26:58.524Z,18.44
2016-07-10T02:27:28.536Z,18.41
2016-07-10T02:27:59.164Z,18.4
2016-07-10T02:28:29.176Z,18.41
2016-07-10T02:28:59.211Z,18.53
2016-07-10T02:29:29.214Z,18.44
2016-07-10T02:29:59.228Z,18.4
2016-07-10T02:30:29.238Z,18.44
2016-07-10T02:30:59.258Z,18.49
2016-07-10T02:31:29.268Z,18.53
2016-07-10T02:31:59.285Z,18.35
2016-07-10T02:32:29.299Z,18.44
2016-07-10T02:32:59.313Z,18.47
2016-07-10T02:33:29.330Z,18.37
2016-07-10T02:33:59.346Z,18.47
2016-07-10T02:34:29.357Z,18.31
2016-07-10T02:34:59.371Z,18.37
2016-07-10T02:35:29.385Z,18.35
2016-07-10T02:35:59.404Z,18.33
2016-07-10T02:36:29.423Z,18.35
2016-07-10T02:36:59.432Z,18.31
2016-07-10T02:37:29.445Z,18.31
2016-07-10T02:37:59.472Z,18.29
2016-07-10T02:38:29.480Z,18.28
2016-07-10T02:38:59.494Z,18.34
2016-07-10T02:39:29.508Z,18.33
2016-07-10T02:39:58.911Z,18.28
2016-07-10T02:40:29.537Z,18.23
2016-07-10T02:40:59.556Z,18.23
2016-07-10T02:41:29.573Z,18.29
2016-07-10T02:41:59.583Z,18.33
2016-07-10T02:42:28.984Z,18.31
2016-07-10T02:42:59.616Z,18.26
2016-07-10T02:43:29.642Z,18.33
2016-07-10T02:43:59.643Z,18.28
2016-07-10T02:44:29.661Z,18.28
2016-07-10T02:44:59.679Z,18.28
2016-07-10T02:45:29.686Z,18.31
2016-07-10T02:45:59.706Z,18.2
2016-07-10T02:46:29.720Z,18.2
2016-07-10T02:46:59.732Z,18.23
2016-07-10T02:47:29.751Z,18.25
2016-07-10T02:47:59.770Z,18.25
2016-07-10T02:48:29.782Z,18.22
2016-07-10T02:48:59.800Z,18.18
2016-07-10T02:49:29.813Z,18.23
2016-07-10T02:49:59.825Z,18.23
2016-07-10T02:50:29.840Z,18.22
2016-07-10T02:50:59.854Z,18.16
2016-07-10T02:51:29.869Z,18.22
2016-07-10T02:51:59.886Z,18.15
2016-07-10T02:52:29.902Z,18.15
2016-07-10T02:52:59.922Z,18.11
2016-07-10T02:53:29.930Z,18.16
2016-07-10T02:53:59.945Z,18.2
2016-07-10T02:54:29.967Z,18.23
2016-07-10T02:54:59.977Z,18.19
2016-07-10T02:55:29.996Z,18.18
2016-07-10T02:56:00.008Z,18.1
2016-07-10T02:56:30.021Z,18.2
2016-07-10T02:57:00.042Z,18.15
2016-07-10T02:57:30.064Z,18.11
2016-07-10T02:58:00.064Z,18.1
2016-07-10T02:58:30.076Z,18.1
2016-07-10T02:59:00.097Z,18.11
2016-07-10T02:59:30.111Z,18.15
2016-07-10T03:00:00.132Z,18.15
2016-07-10T03:00:30.142Z,18.15
2016-07-10T03:01:00.168Z,18.1
2016-07-10T03:01:30.173Z,18.15
2016-07-10T03:02:00.192Z,18.16
2016-07-10T03:02:30.201Z,18.08
2016-07-10T03:03:00.211Z,18.11
2016-07-10T03:03:30.233Z,18.1
2016-07-10T03:04:00.252Z,18.15
2016-07-10T03:04:29.650Z,18.15
2016-07-10T03:05:00.274Z,18.15
2016-07-10T03:05:30.292Z,18.1
2016-07-10T03:05:59.692Z,18.08
2016-07-10T03:06:30.323Z,18.07
2016-07-10T03:07:00.337Z,18.1
2016-07-10T03:07:29.737Z,18.11
2016-07-10T03:08:00.372Z,18.08
2016-07-10T03:08:30.383Z,18.13
2016-07-10T03:09:00.396Z,18.15
2016-07-10T03:09:29.805Z,18.13
2016-07-10T03:10:00.432Z,18.03
2016-07-10T03:10:29.211Z,18.11
2016-07-10T03:11:00.457Z,18.01
2016-07-10T03:11:30.473Z,18.04
2016-07-10T03:11:59.869Z,18.11
2016-07-10T03:12:29.895Z,17.97
2016-07-10T03:12:59.904Z,18.11
2016-07-10T03:13:30.532Z,17.98
2016-07-10T03:14:00.553Z,18
2016-07-10T03:14:29.953Z,18.04
2016-07-10T03:15:00.577Z,17.95
2016-07-10T03:15:30.588Z,18.01
2016-07-10T03:16:00.608Z,18.01
2016-07-10T03:16:30.623Z,18.01
2016-07-10T03:17:00.635Z,18.01
2016-07-10T03:17:30.649Z,17.98
2016-07-10T03:18:00.668Z,18
2016-07-10T03:18:30.682Z,17.94
2016-07-10T03:19:00.695Z,18.03
2016-07-10T03:19:30.715Z,17.97
2016-07-10T03:20:00.723Z,18.03
2016-07-10T03:20:30.737Z,18.03
2016-07-10T03:21:00.762Z,18.03
2016-07-10T03:21:30.771Z,17.95
2016-07-10T03:22:00.784Z,18.01
2016-07-10T03:22:30.805Z,17.95
2016-07-10T03:23:00.823Z,17.92
2016-07-10T03:23:30.213Z,17.94
2016-07-10T03:24:00.847Z,17.92
2016-07-10T03:24:30.865Z,17.94
2016-07-10T03:25:00.883Z,18.01
2016-07-10T03:25:30.892Z,17.94
2016-07-10T03:26:00.906Z,17.95
2016-07-10T03:26:30.923Z,17.95
2016-07-10T03:27:00.935Z,17.94
2016-07-10T03:27:30.949Z,17.95
2016-07-10T03:28:00.973Z,17.94
2016-07-10T03:28:30.979Z,17.94
2016-07-10T03:29:01.003Z,17.97
2016-07-10T03:29:31.015Z,17.95
2016-07-10T03:30:01.023Z,17.94
2016-07-10T03:30:31.044Z,17.9
2016-07-10T03:31:01.064Z,17.94
2016-07-10T03:31:31.068Z,17.94
2016-07-10T03:32:01.088Z,17.97
2016-07-10T03:32:31.103Z,18
2016-07-10T03:33:01.113Z,18.03
2016-07-10T03:33:31.130Z,18.04
2016-07-10T03:34:01.145Z,18.03
2016-07-10T03:34:30.554Z,18.03
2016-07-10T03:35:01.173Z,18.01
2016-07-10T03:35:31.193Z,18.01
2016-07-10T03:36:00.593Z,17.98
2016-07-10T03:36:31.220Z,17.98
2016-07-10T03:37:01.243Z,18.03
2016-07-10T03:37:31.254Z,17.95
2016-07-10T03:38:01.266Z,18.03
2016-07-10T03:38:31.281Z,18.04
2016-07-10T03:39:01.298Z,18
2016-07-10T03:39:31.315Z,18.05
2016-07-10T03:40:01.325Z,17.97
2016-07-10T03:40:31.341Z,17.94
2016-07-10T03:41:01.360Z,18.01
2016-07-10T03:41:31.370Z,18.1
2016-07-10T03:42:01.395Z,18.03
2016-07-10T03:42:31.405Z,18.13
2016-07-10T03:43:01.424Z,18.08
2016-07-10T03:43:31.431Z,18.15
2016-07-10T03:44:01.454Z,18.16
2016-07-10T03:44:31.464Z,18.22
2016-07-10T03:45:01.476Z,18.2
2016-07-10T03:45:30.873Z,18.16
2016-07-10T03:46:01.508Z,18.16
2016-07-10T03:46:31.529Z,18.15
2016-07-10T03:47:01.546Z,18.25
2016-07-10T03:47:31.551Z,18.29
2016-07-10T03:48:01.562Z,18.29
2016-07-10T03:48:31.578Z,18.29
2016-07-10T03:49:01.600Z,18.31
2016-07-10T03:49:31.000Z,18.23
2016-07-10T03:50:01.626Z,18.23
2016-07-10T03:50:31.638Z,18.29
2016-07-10T03:51:01.664Z,18.33
2016-07-10T03:51:31.673Z,18.29
2016-07-10T03:52:00.468Z,18.2
2016-07-10T03:52:31.699Z,18.25
2016-07-10T03:53:01.723Z,18.18
2016-07-10T03:53:31.735Z,18.22
2016-07-10T03:54:01.748Z,18.23
2016-07-10T03:54:31.762Z,18.29
2016-07-10T03:55:01.776Z,18.26
2016-07-10T03:55:31.791Z,18.31
2016-07-10T03:56:01.810Z,18.26
2016-07-10T03:56:31.823Z,18.28
2016-07-10T03:57:01.832Z,18.26
2016-07-10T03:57:31.850Z,18.29
2016-07-10T03:58:01.871Z,18.29
2016-07-10T03:58:31.881Z,18.33
2016-07-10T03:59:01.898Z,18.26
2016-07-10T03:59:31.910Z,18.25
2016-07-10T04:00:01.935Z,18.33
2016-07-10T04:00:31.945Z,18.33
2016-07-10T04:01:01.953Z,18.23
2016-07-10T04:01:31.972Z,18.26
2016-07-10T04:02:01.984Z,18.33
2016-07-10T04:02:31.394Z,18.28
2016-07-10T04:03:02.013Z,18.26
2016-07-10T04:03:32.035Z,18.28
2016-07-10T04:04:02.048Z,18.29
2016-07-10T04:04:32.062Z,18.35
2016-07-10T04:05:02.080Z,18.4
2016-07-10T04:05:32.095Z,18.35
2016-07-10T04:06:02.115Z,18.37
2016-07-10T04:06:32.119Z,18.44
2016-07-10T04:07:02.139Z,18.41
2016-07-10T04:07:32.159Z,18.44
2016-07-10T04:08:02.164Z,18.35
2016-07-10T04:08:31.565Z,18.43
2016-07-10T04:09:02.199Z,18.35
2016-07-10T04:09:32.210Z,18.44
2016-07-10T04:10:02.240Z,18.43
2016-07-10T04:10:32.245Z,18.49
2016-07-10T04:11:02.255Z,18.4
2016-07-10T04:11:31.043Z,18.4
2016-07-10T04:12:01.065Z,18.41
2016-07-10T04:12:32.297Z,18.43
2016-07-10T04:13:02.319Z,18.47
2016-07-10T04:13:32.335Z,18.43
2016-07-10T04:14:02.342Z,18.41
2016-07-10T04:14:32.371Z,18.44
2016-07-10T04:15:02.378Z,18.41
2016-07-10T04:15:32.394Z,18.45
2016-07-10T04:16:02.401Z,18.45
2016-07-10T04:16:31.806Z,18.5
2016-07-10T04:17:02.446Z,18.44
2016-07-10T04:17:32.455Z,18.45
2016-07-10T04:18:02.469Z,18.5
2016-07-10T04:18:32.481Z,18.49
2016-07-10T04:19:02.500Z,18.5
2016-07-10T04:19:31.901Z,18.49
2016-07-10T04:20:02.536Z,18.53
2016-07-10T04:20:32.542Z,18.37
2016-07-10T04:21:02.561Z,18.49
2016-07-10T04:21:32.579Z,18.4
2016-07-10T04:22:02.588Z,18.43
2016-07-10T04:22:32.604Z,18.43
2016-07-10T04:23:02.634Z,18.38
2016-07-10T04:23:32.635Z,18.4
2016-07-10T04:24:02.650Z,18.47
2016-07-10T04:24:32.664Z,18.37
2016-07-10T04:25:02.678Z,18.47
2016-07-10T04:25:32.688Z,18.45
2016-07-10T04:26:02.715Z,18.38
2016-07-10T04:26:32.727Z,18.45
2016-07-10T04:27:02.735Z,18.33
2016-07-10T04:27:32.754Z,18.47
2016-07-10T04:28:02.772Z,18.43
2016-07-10T04:28:32.789Z,18.34
2016-07-10T04:29:02.799Z,18.37
2016-07-10T04:29:32.809Z,18.55
2016-07-10T04:30:02.836Z,18.41
2016-07-10T04:30:32.228Z,18.44
2016-07-10T04:31:02.861Z,18.49
2016-07-10T04:31:32.878Z,18.43
2016-07-10T04:32:02.896Z,18.47
2016-07-10T04:32:32.902Z,18.4
2016-07-10T04:33:02.922Z,18.52
2016-07-10T04:33:32.937Z,18.52
2016-07-10T04:34:02.947Z,18.49
2016-07-10T04:34:32.966Z,18.55
2016-07-10T04:35:02.983Z,18.5
2016-07-10T04:35:32.993Z,18.56
2016-07-10T04:36:03.017Z,18.56
2016-07-10T04:36:33.025Z,18.6
2016-07-10T04:37:03.043Z,18.65
2016-07-10T04:37:33.056Z,18.65
2016-07-10T04:38:03.076Z,18.68
2016-07-10T04:38:33.080Z,18.75
2016-07-10T04:39:03.097Z,18.68
2016-07-10T04:39:33.122Z,18.75
2016-07-10T04:40:03.131Z,18.77
2016-07-10T04:40:33.148Z,18.81
2016-07-10T04:41:03.158Z,18.78
2016-07-10T04:41:33.173Z,18.89
2016-07-10T04:42:03.326Z,18.9
2016-07-10T04:42:32.591Z,18.96
2016-07-10T04:43:03.227Z,18.92
2016-07-10T04:43:33.241Z,19
2016-07-10T04:44:03.251Z,19.02
2016-07-10T04:44:33.270Z,19.11
2016-07-10T04:45:03.286Z,19.04
2016-07-10T04:45:33.306Z,19.07
2016-07-10T04:46:02.699Z,19.09
2016-07-10T04:46:33.331Z,19.15
2016-07-10T04:47:03.347Z,19.24
2016-07-10T04:47:33.361Z,19.22
2016-07-10T04:48:03.378Z,19.33
2016-07-10T04:48:33.395Z,19.31
2016-07-10T04:49:03.408Z,19.31
2016-07-10T04:49:33.418Z,19.31
2016-07-10T04:50:03.438Z,19.33
2016-07-10T04:50:33.451Z,19.39
2016-07-10T04:51:03.471Z,19.4
2016-07-10T04:51:33.475Z,19.44
2016-07-10T04:52:03.497Z,19.54
2016-07-10T04:52:33.508Z,19.51
2016-07-10T04:53:02.912Z,19.51
2016-07-10T04:53:33.537Z,19.56
2016-07-10T04:54:03.557Z,19.62
2016-07-10T04:54:33.567Z,19.58
2016-07-10T04:55:02.974Z,19.64
2016-07-10T04:55:33.604Z,19.64
2016-07-10T04:56:03.617Z,19.77
2016-07-10T04:56:33.025Z,19.74
2016-07-10T04:57:03.033Z,19.73
2016-07-10T04:57:33.662Z,19.77
2016-07-10T04:58:03.678Z,19.81
2016-07-10T04:58:33.080Z,19.79
2016-07-10T04:59:03.708Z,19.81
2016-07-10T04:59:33.725Z,19.84
2016-07-10T05:00:03.748Z,19.84
2016-07-10T05:00:33.756Z,19.86
2016-07-10T05:01:03.766Z,19.84
2016-07-10T05:01:33.797Z,19.81
2016-07-10T05:02:03.807Z,19.81
2016-07-10T05:02:33.827Z,19.85
2016-07-10T05:03:03.217Z,19.86
2016-07-10T05:03:33.855Z,19.76
2016-07-10T05:04:03.863Z,19.74
2016-07-10T05:04:33.889Z,19.71
2016-07-10T05:05:03.896Z,19.74
2016-07-10T05:05:33.912Z,19.76
2016-07-10T05:06:03.924Z,19.86
2016-07-10T05:06:33.950Z,19.79
2016-07-10T05:07:03.954Z,19.73
2016-07-10T05:07:33.974Z,19.82
2016-07-10T05:08:03.989Z,19.79
2016-07-10T05:08:33.998Z,19.77
2016-07-10T05:09:04.016Z,19.73
2016-07-10T05:09:34.036Z,19.73
2016-07-10T05:10:04.045Z,19.74
2016-07-10T05:10:34.069Z,19.76
2016-07-10T05:11:04.079Z,19.79
2016-07-10T05:11:34.110Z,19.76
2016-07-10T05:12:03.499Z,19.73
2016-07-10T05:12:32.900Z,19.84
2016-07-10T05:13:04.139Z,19.92
2016-07-10T05:13:34.159Z,20.03
2016-07-10T05:14:04.172Z,20.07
2016-07-10T05:14:33.573Z,20.06
2016-07-10T05:15:04.210Z,20.06
2016-07-10T05:15:34.218Z,20
2016-07-10T05:16:04.235Z,19.96
2016-07-10T05:16:34.250Z,19.91
2016-07-10T05:17:04.265Z,19.99
2016-07-10T05:17:34.286Z,20
2016-07-10T05:18:04.295Z,20.04
2016-07-10T05:18:34.309Z,20.19
2016-07-10T05:19:04.328Z,20.32
2016-07-10T05:19:34.350Z,20.28
2016-07-10T05:20:04.355Z,20.34
2016-07-10T05:20:34.372Z,20.43
2016-07-10T05:21:04.389Z,20.4
2016-07-10T05:21:34.400Z,20.29
2016-07-10T05:22:04.424Z,20.36
2016-07-10T05:22:34.433Z,20.36
2016-07-10T05:23:04.455Z,20.28
2016-07-10T05:23:34.469Z,20.19
2016-07-10T05:24:04.497Z,20.25
2016-07-10T05:24:34.499Z,20.29
2016-07-10T05:25:04.520Z,20.32
2016-07-10T05:25:34.531Z,20.34
2016-07-10T05:26:04.538Z,20.26
2016-07-10T05:26:34.559Z,20.19
2016-07-10T05:27:04.574Z,20.32
2016-07-10T05:27:34.588Z,20.32
2016-07-10T05:28:04.604Z,20.37
2016-07-10T05:28:34.621Z,20.26
2016-07-10T05:29:04.647Z,20.36
2016-07-10T05:29:34.650Z,20.44
2016-07-10T05:30:04.671Z,20.4
2016-07-10T05:30:34.689Z,20.5
2016-07-10T05:31:04.692Z,20.5
2016-07-10T05:31:34.719Z,20.56
2016-07-10T05:32:04.728Z,20.6
2016-07-10T05:32:34.742Z,20.65
2016-07-10T05:33:04.761Z,20.75
2016-07-10T05:33:34.775Z,20.81
2016-07-10T05:34:04.789Z,20.85
2016-07-10T05:34:34.805Z,21
2016-07-10T05:35:04.823Z,21
2016-07-10T05:35:34.835Z,21.11
2016-07-10T05:36:04.856Z,21.2
2016-07-10T05:36:34.893Z,21.24
2016-07-10T05:37:04.880Z,21.33
2016-07-10T05:37:34.901Z,21.45
2016-07-10T05:38:04.300Z,21.52
2016-07-10T05:38:34.332Z,21.6
2016-07-10T05:39:04.949Z,21.64
2016-07-10T05:39:34.347Z,21.88
2016-07-10T05:40:04.980Z,21.92
2016-07-10T05:40:34.993Z,22.08
2016-07-10T05:41:04.400Z,22.1
2016-07-10T05:41:35.025Z,22.13
2016-07-10T05:42:05.040Z,22.23
2016-07-10T05:42:35.060Z,22.3
2016-07-10T05:43:05.075Z,22.43
2016-07-10T05:43:35.095Z,22.43
2016-07-10T05:44:05.103Z,22.53
2016-07-10T05:44:35.118Z,22.51
2016-07-10T05:45:05.135Z,22.54
2016-07-10T05:45:35.148Z,22.45
2016-07-10T05:46:05.174Z,22.36
2016-07-10T05:46:34.571Z,22.3
2016-07-10T05:47:05.204Z,22.28
2016-07-10T05:47:35.215Z,22.25
2016-07-10T05:48:05.241Z,22.17
2016-07-10T05:48:35.254Z,22.13
2016-07-10T05:49:05.265Z,22.1
2016-07-10T05:49:35.283Z,22.02
2016-07-10T05:50:04.676Z,22.04
2016-07-10T05:50:35.310Z,21.98
2016-07-10T05:51:05.326Z,21.89
2016-07-10T05:51:35.339Z,21.93
2016-07-10T05:52:05.363Z,21.89
2016-07-10T05:52:35.372Z,21.88
2016-07-10T05:53:04.772Z,21.85
2016-07-10T05:53:35.405Z,21.93
2016-07-10T05:54:05.426Z,22.06
2016-07-10T05:54:35.435Z,21.99
2016-07-10T05:55:05.454Z,22
2016-07-10T05:55:35.469Z,22.13
2016-07-10T05:56:04.875Z,22.13
2016-07-10T05:56:35.511Z,22.23
2016-07-10T05:57:05.513Z,22.14
2016-07-10T05:57:35.534Z,22.17
2016-07-10T05:58:05.547Z,22.1
2016-07-10T05:58:35.571Z,22.08
2016-07-10T05:59:05.590Z,22.04
2016-07-10T05:59:35.596Z,21.96
2016-07-10T06:00:05.618Z,21.82
2016-07-10T06:00:35.632Z,21.79
2016-07-10T06:01:05.644Z,21.76
2016-07-10T06:01:35.047Z,21.82
2016-07-10T06:02:05.676Z,21.88
2016-07-10T06:02:35.698Z,22
2016-07-10T06:03:05.707Z,22
2016-07-10T06:03:35.725Z,21.98
2016-07-10T06:04:05.740Z,22.06
2016-07-10T06:04:35.756Z,22.06
2016-07-10T06:05:05.779Z,22.11
2016-07-10T06:05:35.787Z,22.23
2016-07-10T06:06:05.810Z,22.28
2016-07-10T06:06:35.820Z,22.2
2016-07-10T06:07:05.222Z,22.33
2016-07-10T06:07:35.862Z,22.36
2016-07-10T06:08:05.873Z,22.39
2016-07-10T06:08:35.894Z,22.41
2016-07-10T06:09:05.905Z,22.44
2016-07-10T06:09:35.910Z,22.39
2016-07-10T06:10:05.317Z,22.33
2016-07-10T06:10:35.948Z,22.39
2016-07-10T06:11:05.957Z,22.43
2016-07-10T06:11:35.979Z,22.39
2016-07-10T06:12:06.004Z,22.38
2016-07-10T06:12:36.014Z,22.44
2016-07-10T06:13:06.037Z,22.39
2016-07-10T06:13:35.437Z,22.38
2016-07-10T06:14:06.061Z,22.43
2016-07-10T06:14:36.071Z,22.51
2016-07-10T06:15:06.093Z,22.55
2016-07-10T06:15:36.113Z,22.59
2016-07-10T06:16:06.121Z,22.7
2016-07-10T06:16:36.140Z,22.68
2016-07-10T06:17:06.160Z,22.73
2016-07-10T06:17:36.174Z,22.69
2016-07-10T06:18:06.187Z,22.76
2016-07-10T06:18:36.204Z,22.81
2016-07-10T06:19:06.218Z,22.84
2016-07-10T06:19:36.238Z,22.98
2016-07-10T06:20:06.253Z,22.85
2016-07-10T06:20:36.273Z,22.94
2016-07-10T06:21:06.279Z,22.96
2016-07-10T06:21:36.319Z,22.99
2016-07-10T06:22:06.318Z,23.03
2016-07-10T06:22:36.333Z,23.03
2016-07-10T06:23:06.353Z,23.09
2016-07-10T06:23:35.748Z,23.1
2016-07-10T06:24:06.378Z,23.1
2016-07-10T06:24:35.783Z,23.18
2016-07-10T06:25:06.415Z,23.18
2016-07-10T06:25:35.819Z,23.28
2016-07-10T06:26:06.437Z,23.46
2016-07-10T06:26:36.449Z,23.36
2016-07-10T06:27:05.860Z,23.37
2016-07-10T06:27:36.490Z,23.37
2016-07-10T06:28:06.506Z,23.32
2016-07-10T06:28:36.534Z,23.51